createdAt,value
2023-12-23T00:00:27.302Z,54.70
2023-12-23T00:01:27.279Z,55.16
2023-12-23T00:02:27.268Z,55.88
2023-12-23T00:03:27.326Z,55.72
2023-12-23T00:04:27.251Z,55.27
2023-12-23T00:05:27.337Z,57.53
2023-12-23T00:56:29.207Z,57.24
2023-12-23T00:57:26.780Z,66.35
2023-12-23T00:58:26.769Z,92.17
2023-12-23T00:59:26.769Z,123.19
2023-12-23T01:00:26.826Z,156.71
2023-12-23T01:01:26.745Z,189.44
2023-12-23T01:02:26.734Z,174.13
2023-12-23T01:03:26.769Z,155.14
2023-12-23T01:04:26.719Z,143.23
2023-12-23T01:05:26.713Z,132.72
2023-12-23T01:06:26.765Z,122.71
2023-12-23T01:07:26.686Z,114.07
2023-12-23T01:08:26.713Z,107.35
2023-12-23T01:09:26.668Z,101.98
2023-12-23T01:10:26.665Z,96.30
2023-12-23T01:11:26.663Z,93.01
2023-12-23T01:12:26.672Z,87.74
2023-12-23T01:13:26.639Z,84.96
2023-12-23T01:14:26.623Z,81.80
2023-12-23T01:15:26.629Z,79.39
2023-12-23T01:16:26.616Z,77.81
2023-12-23T01:17:26.599Z,74.04
2023-12-23T01:18:26.692Z,71.63
2023-12-23T01:19:26.579Z,71.84
2023-12-23T01:20:26.694Z,65.76
2023-12-23T01:21:26.566Z,64.87
2023-12-23T01:22:26.552Z,64.88
2023-12-23T01:23:26.585Z,63.62
2023-12-23T01:24:26.530Z,62.45
2023-12-23T01:25:26.541Z,60.61
2023-12-23T01:26:26.511Z,60.79
2023-12-23T01:27:26.505Z,58.22
2023-12-23T01:28:26.526Z,58.30
2023-12-23T01:29:26.506Z,54.54
2023-12-23T01:30:26.542Z,57.26
2023-12-23T01:31:26.467Z,55.24
2023-12-23T01:32:26.517Z,57.47
2023-12-23T01:33:26.577Z,52.16
2023-12-23T01:34:26.448Z,53.38
2023-12-23T01:35:26.524Z,55.03
2023-12-23T01:36:26.431Z,51.86
2023-12-23T01:37:26.420Z,52.15
2023-12-23T01:38:26.448Z,51.57
2023-12-23T01:39:26.396Z,50.48
2023-12-23T01:40:26.385Z,50.44
2023-12-23T01:41:26.488Z,50.00
2023-12-23T01:42:26.371Z,50.90
2023-12-23T01:43:26.374Z,52.77
2023-12-23T01:44:26.378Z,51.95
2023-12-23T01:45:26.359Z,51.63
2023-12-23T01:46:26.329Z,50.20
2023-12-23T01:47:26.397Z,50.73
2023-12-23T01:48:26.425Z,51.34
2023-12-23T01:49:26.832Z,51.04
2023-12-23T01:50:26.368Z,50.16
2023-12-23T01:51:26.296Z,50.00
2023-12-23T01:52:26.289Z,50.02
2023-12-23T01:53:26.273Z,51.29
2023-12-23T01:54:26.261Z,53.02
2023-12-23T01:55:26.275Z,51.20
2023-12-23T01:56:26.247Z,53.17
2023-12-23T01:57:26.239Z,49.85
2023-12-23T01:58:26.230Z,52.37
2023-12-23T01:59:26.233Z,53.85
2023-12-23T02:00:26.243Z,53.02
2023-12-23T02:01:26.287Z,51.37
2023-12-23T02:02:26.255Z,53.06
2023-12-23T02:03:26.212Z,53.29
2023-12-23T02:04:26.170Z,52.31
2023-12-23T02:05:26.208Z,52.93
2023-12-23T02:06:26.168Z,54.34
2023-12-23T02:07:26.151Z,53.87
2023-12-23T02:08:26.142Z,50.19
2023-12-23T02:09:26.135Z,51.76
2023-12-23T02:10:26.122Z,50.77
2023-12-23T02:11:26.110Z,51.93
2023-12-23T02:12:26.101Z,52.23
2023-12-23T02:13:26.092Z,53.33
2023-12-23T02:14:26.081Z,51.55
2023-12-23T02:15:26.077Z,51.31
2023-12-23T02:16:26.095Z,50.95
2023-12-23T02:17:26.267Z,51.84
2023-12-23T02:18:28.700Z,51.82
2023-12-23T02:19:26.041Z,51.91
2023-12-23T02:20:26.032Z,51.85
2023-12-23T02:21:26.032Z,50.01
2023-12-23T02:22:26.012Z,53.22
2023-12-23T02:23:26.079Z,52.79
2023-12-23T02:24:25.992Z,52.29
2023-12-23T02:25:26.004Z,52.00
2023-12-23T02:26:25.974Z,53.00
2023-12-23T02:27:25.967Z,53.80
2023-12-23T02:28:25.962Z,51.98
2023-12-23T02:29:25.948Z,54.05
2023-12-23T02:30:25.974Z,54.58
2023-12-23T02:31:25.929Z,53.43
2023-12-23T02:32:26.022Z,53.31
2023-12-23T02:33:25.990Z,52.90
2023-12-23T02:34:25.896Z,50.80
2023-12-23T02:35:25.899Z,51.69
2023-12-23T02:36:25.880Z,53.77
2023-12-23T02:37:25.886Z,53.05
2023-12-23T02:38:25.870Z,51.72
2023-12-23T02:39:25.856Z,52.00
2023-12-23T02:40:25.858Z,51.30
2023-12-23T02:41:25.853Z,50.00
2023-12-23T02:42:25.829Z,52.38
2023-12-23T02:43:25.823Z,53.68
2023-12-23T02:44:25.824Z,52.04
2023-12-23T02:45:25.818Z,53.20
2023-12-23T02:46:25.789Z,51.86
2023-12-23T02:47:25.800Z,52.65
2023-12-23T02:48:25.841Z,52.99
2023-12-23T02:49:25.765Z,51.61
2023-12-23T02:50:25.803Z,52.73
2023-12-23T02:51:25.753Z,53.44
2023-12-23T02:52:25.747Z,51.66
2023-12-23T02:53:25.855Z,51.99
2023-12-23T02:54:25.719Z,52.23
2023-12-23T02:55:25.713Z,52.57
2023-12-23T02:56:25.759Z,50.59
2023-12-23T02:57:25.700Z,52.26
2023-12-23T02:58:25.725Z,50.26
2023-12-23T02:59:25.739Z,51.38
2023-12-23T03:00:25.680Z,52.25
2023-12-23T03:01:25.681Z,50.32
2023-12-23T03:02:25.641Z,51.96
2023-12-23T03:03:25.677Z,53.40
2023-12-23T03:04:25.645Z,52.41
2023-12-23T03:05:25.838Z,51.17
2023-12-23T03:06:25.609Z,50.45
2023-12-23T03:07:25.605Z,50.88
2023-12-23T03:08:25.641Z,52.53
2023-12-23T03:09:25.578Z,51.70
2023-12-23T03:10:25.600Z,52.59
2023-12-23T03:11:25.586Z,53.72
2023-12-23T03:12:25.566Z,51.35
2023-12-23T03:13:25.545Z,51.30
2023-12-23T03:14:25.627Z,54.66
2023-12-23T03:15:25.523Z,54.36
2023-12-23T03:16:25.529Z,53.47
2023-12-23T03:17:25.524Z,52.61
2023-12-23T03:18:25.607Z,53.73
2023-12-23T03:19:25.500Z,52.50
2023-12-23T03:20:25.578Z,52.72
2023-12-23T03:21:25.499Z,50.59
2023-12-23T03:22:25.469Z,52.27
2023-12-23T03:23:25.573Z,52.81
2023-12-23T03:24:25.475Z,51.53
2023-12-23T03:25:25.434Z,52.44
2023-12-23T03:26:25.430Z,51.97
2023-12-23T03:27:25.418Z,53.11
2023-12-23T03:28:25.450Z,53.72
2023-12-23T03:29:25.480Z,51.03
2023-12-23T03:30:25.471Z,54.58
2023-12-23T03:31:25.394Z,55.05
2023-12-23T03:32:25.513Z,54.08
2023-12-23T03:33:25.502Z,51.63
2023-12-23T03:34:25.358Z,51.85
2023-12-23T03:35:25.380Z,52.57
2023-12-23T03:36:25.370Z,52.10
2023-12-23T03:37:25.874Z,52.25
2023-12-23T03:38:25.326Z,50.95
2023-12-23T03:39:25.308Z,52.83
2023-12-23T03:40:25.310Z,51.94
2023-12-23T03:41:25.296Z,52.07
2023-12-23T03:42:25.404Z,51.05
2023-12-23T03:43:25.274Z,51.11
2023-12-23T03:44:25.327Z,52.99
2023-12-23T03:45:25.254Z,53.33
2023-12-23T03:46:25.269Z,51.90
2023-12-23T03:47:25.235Z,51.73
2023-12-23T03:48:25.382Z,54.26
2023-12-23T03:49:25.217Z,51.88
2023-12-23T03:50:25.249Z,50.81
2023-12-23T03:51:25.206Z,52.73
2023-12-23T03:52:25.215Z,53.37
2023-12-23T03:53:25.223Z,50.29
2023-12-23T03:54:25.208Z,51.19
2023-12-23T03:55:25.164Z,52.47
2023-12-23T03:56:25.169Z,51.37
2023-12-23T03:57:25.154Z,51.93
2023-12-23T03:58:25.159Z,50.23
2023-12-23T03:59:25.200Z,51.56
2023-12-23T04:00:25.120Z,52.25
2023-12-23T04:01:25.113Z,52.29
2023-12-23T04:02:25.101Z,51.93
2023-12-23T04:03:25.112Z,53.11
2023-12-23T04:04:25.083Z,52.53
2023-12-23T04:05:25.124Z,51.72
2023-12-23T04:06:25.083Z,53.06
2023-12-23T04:07:25.067Z,51.29
2023-12-23T04:08:25.143Z,51.88
2023-12-23T04:09:25.041Z,51.83
2023-12-23T04:10:25.033Z,53.99
2023-12-23T04:11:25.057Z,52.28
2023-12-23T04:12:25.017Z,52.35
2023-12-23T04:13:25.014Z,54.21
2023-12-23T04:14:25.063Z,52.41
2023-12-23T04:15:24.994Z,54.41
2023-12-23T04:16:24.985Z,51.88
2023-12-23T04:17:25.013Z,52.51
2023-12-23T04:18:25.088Z,52.26
2023-12-23T04:19:24.964Z,53.52
2023-12-23T04:20:24.997Z,52.00
2023-12-23T04:21:24.947Z,53.54
2023-12-23T04:22:24.926Z,53.57
2023-12-23T04:23:24.980Z,52.82
2023-12-23T04:24:24.939Z,53.28
2023-12-23T04:25:24.901Z,53.80
2023-12-23T04:26:24.917Z,52.54
2023-12-23T04:27:24.896Z,51.94
2023-12-23T04:28:24.871Z,51.62
2023-12-23T04:29:24.883Z,53.01
2023-12-23T04:30:24.985Z,52.43
2023-12-23T04:31:24.958Z,50.08
2023-12-23T04:32:24.986Z,51.71
2023-12-23T04:33:24.985Z,52.79
2023-12-23T04:34:24.829Z,50.13
2023-12-23T04:35:24.905Z,52.78
2023-12-23T04:36:24.802Z,50.87
2023-12-23T04:37:24.845Z,53.12
2023-12-23T04:38:24.869Z,52.35
2023-12-23T04:39:24.772Z,50.73
2023-12-23T04:40:24.786Z,51.31
2023-12-23T04:41:24.798Z,51.92
2023-12-23T04:42:24.749Z,52.44
2023-12-23T04:43:24.753Z,52.46
2023-12-23T04:44:24.756Z,51.79
2023-12-23T04:45:24.713Z,53.46
2023-12-23T04:46:24.708Z,52.75
2023-12-23T04:47:24.751Z,52.89
2023-12-23T04:48:24.707Z,53.41
2023-12-23T04:49:24.678Z,53.28
2023-12-23T04:50:24.750Z,53.69
2023-12-23T04:51:24.677Z,51.47
2023-12-23T04:52:24.660Z,50.24
2023-12-23T04:53:24.693Z,52.62
2023-12-23T04:54:24.630Z,53.61
2023-12-23T04:55:24.642Z,52.87
2023-12-23T04:56:24.696Z,53.33
2023-12-23T04:57:24.611Z,51.95
2023-12-23T04:58:24.607Z,53.05
2023-12-23T04:59:24.661Z,52.22
2023-12-23T05:00:24.570Z,52.47
2023-12-23T05:01:24.586Z,52.12
2023-12-23T05:02:24.580Z,52.93
2023-12-23T05:03:24.734Z,53.43
2023-12-23T05:04:24.555Z,51.58
2023-12-23T05:05:24.586Z,52.71
2023-12-23T05:06:24.663Z,51.05
2023-12-23T05:07:24.538Z,51.07
2023-12-23T05:08:24.526Z,52.47
2023-12-23T05:09:24.493Z,52.69
2023-12-23T05:10:24.495Z,53.00
2023-12-23T05:11:24.488Z,51.04
2023-12-23T05:12:24.497Z,53.57
2023-12-23T05:13:24.539Z,53.31
2023-12-23T05:14:24.525Z,52.82
2023-12-23T05:15:24.444Z,51.15
2023-12-23T05:16:24.446Z,52.04
2023-12-23T05:17:24.510Z,53.00
2023-12-23T05:18:24.444Z,51.51
2023-12-23T05:19:24.412Z,52.77
2023-12-23T05:20:24.503Z,53.48
2023-12-23T05:21:24.399Z,52.13
2023-12-23T05:22:24.382Z,50.58
2023-12-23T05:23:24.425Z,52.46
2023-12-23T05:24:24.361Z,50.00
2023-12-23T05:25:24.362Z,52.40
2023-12-23T05:26:24.446Z,53.14
2023-12-23T05:27:24.335Z,53.92
2023-12-23T05:28:24.420Z,53.09
2023-12-23T05:29:24.348Z,52.24
2023-12-23T05:30:24.316Z,54.24
2023-12-23T05:31:24.299Z,52.73
2023-12-23T05:32:24.414Z,52.22
2023-12-23T05:33:24.341Z,56.70
2023-12-23T05:34:24.438Z,53.86
2023-12-23T05:35:24.320Z,53.61
2023-12-23T05:36:24.271Z,51.81
2023-12-23T05:37:24.244Z,53.04
2023-12-23T05:38:24.338Z,53.25
2023-12-23T05:39:24.242Z,52.60
2023-12-23T05:40:24.237Z,52.05
2023-12-23T05:41:24.229Z,51.70
2023-12-23T05:42:24.210Z,53.59
2023-12-23T05:43:24.241Z,54.61
2023-12-23T05:44:24.356Z,53.64
2023-12-23T05:45:24.250Z,53.35
2023-12-23T05:46:24.188Z,53.28
2023-12-23T05:47:24.334Z,52.83
2023-12-23T05:48:24.274Z,53.55
2023-12-23T05:49:24.924Z,54.70
2023-12-23T05:50:24.187Z,54.06
2023-12-23T05:51:24.221Z,54.78
2023-12-23T05:52:24.290Z,52.82
2023-12-23T05:53:24.290Z,53.22
2023-12-23T05:54:24.112Z,53.57
2023-12-23T05:55:24.165Z,53.65
2023-12-23T05:56:24.116Z,55.96
2023-12-23T05:57:24.069Z,55.28
2023-12-23T05:58:24.066Z,55.18
2023-12-23T05:59:24.101Z,56.33
2023-12-23T06:00:24.065Z,52.70
2023-12-23T06:01:24.046Z,55.04
2023-12-23T06:02:24.075Z,55.94
2023-12-23T06:03:24.054Z,54.04
2023-12-23T06:04:24.003Z,54.87
2023-12-23T06:05:24.148Z,54.53
2023-12-23T06:06:24.047Z,54.87
2023-12-23T06:07:23.993Z,54.92
2023-12-23T06:08:24.042Z,54.63
2023-12-23T06:09:23.984Z,53.73
2023-12-23T06:10:23.950Z,53.90
2023-12-23T06:11:23.963Z,55.62
2023-12-23T06:12:23.933Z,56.16
2023-12-23T06:13:23.935Z,53.43
2023-12-23T06:14:23.957Z,56.39
2023-12-23T06:15:23.927Z,56.25
2023-12-23T06:16:23.926Z,55.88
2023-12-23T06:17:23.951Z,54.22
2023-12-23T06:18:23.998Z,54.61
2023-12-23T06:19:23.911Z,57.21
2023-12-23T06:20:23.965Z,55.30
2023-12-23T06:21:23.849Z,56.10
2023-12-23T06:22:23.949Z,58.34
2023-12-23T06:23:23.863Z,57.95
2023-12-23T06:24:23.821Z,57.15
2023-12-23T06:25:23.837Z,58.30
2023-12-23T06:26:23.855Z,56.25
2023-12-23T06:27:23.792Z,57.94
2023-12-23T06:28:23.804Z,55.84
2023-12-23T06:29:23.825Z,59.20
2023-12-23T06:30:23.800Z,56.40
2023-12-23T06:31:23.825Z,57.95
2023-12-23T06:32:23.877Z,58.02
2023-12-23T06:33:23.797Z,56.07
2023-12-23T06:34:23.734Z,56.83
2023-12-23T06:35:23.844Z,53.90
2023-12-23T06:36:23.714Z,57.13
2023-12-23T06:37:23.705Z,58.18
2023-12-23T06:38:23.828Z,58.40
2023-12-23T06:39:23.688Z,56.07
2023-12-23T06:40:23.973Z,55.24
2023-12-23T06:41:23.734Z,58.95
2023-12-23T06:42:23.668Z,56.39
2023-12-23T06:43:44.991Z,58.36
2023-12-23T06:44:23.704Z,58.50
2023-12-23T06:45:23.658Z,58.85
2023-12-23T06:46:23.626Z,59.20
2023-12-23T06:47:23.699Z,58.71
2023-12-23T06:48:23.832Z,57.40
2023-12-23T06:49:23.780Z,58.27
2023-12-23T06:50:23.689Z,57.65
2023-12-23T06:51:23.583Z,60.34
2023-12-23T06:52:23.578Z,60.68
2023-12-23T06:53:23.637Z,57.81
2023-12-23T06:54:23.553Z,58.93
2023-12-23T06:55:23.547Z,55.64
2023-12-23T06:56:23.842Z,58.37
2023-12-23T06:57:23.535Z,58.80
2023-12-23T06:58:23.515Z,59.93
2023-12-23T06:59:23.604Z,58.80
2023-12-23T07:00:23.566Z,55.81
2023-12-23T07:01:23.560Z,57.57
2023-12-23T07:02:23.539Z,60.10
2023-12-23T07:03:23.585Z,56.77
2023-12-23T07:04:23.496Z,58.05
2023-12-23T07:05:23.635Z,58.92
2023-12-23T07:06:23.484Z,59.80
2023-12-23T07:07:23.537Z,61.61
2023-12-23T07:08:23.545Z,58.01
2023-12-23T07:09:23.456Z,58.61
2023-12-23T07:10:23.478Z,59.73
2023-12-23T07:11:23.526Z,58.71
2023-12-23T07:12:23.416Z,59.98
2023-12-23T07:13:23.471Z,58.10
2023-12-23T07:14:23.521Z,57.96
2023-12-23T07:15:23.477Z,56.25
2023-12-23T07:16:23.453Z,58.70
2023-12-23T07:17:35.306Z,58.63
2023-12-23T07:18:23.507Z,58.75
2023-12-23T07:19:23.372Z,58.85
2023-12-23T07:20:23.417Z,58.66
2023-12-23T07:21:23.306Z,59.66
2023-12-23T07:22:23.305Z,60.94
2023-12-23T07:23:23.297Z,60.35
2023-12-23T07:24:23.291Z,58.76
2023-12-23T07:25:23.335Z,59.35
2023-12-23T07:26:23.361Z,58.01
2023-12-23T07:27:23.256Z,58.09
2023-12-23T07:28:23.252Z,59.23
2023-12-23T07:29:23.320Z,58.63
2023-12-23T07:30:23.347Z,58.11
2023-12-23T07:31:23.221Z,57.55
2023-12-23T07:32:23.273Z,60.48
2023-12-23T07:33:23.369Z,57.40
2023-12-23T07:34:23.195Z,58.96
2023-12-23T07:35:23.320Z,56.23
2023-12-23T07:36:23.200Z,57.98
2023-12-23T07:37:23.163Z,55.92
2023-12-23T07:38:23.252Z,60.22
2023-12-23T07:39:23.146Z,57.10
2023-12-23T07:40:24.177Z,58.32
2023-12-23T07:41:23.193Z,58.34
2023-12-23T07:42:23.115Z,57.88
2023-12-23T07:43:23.110Z,58.65
2023-12-23T07:44:23.187Z,59.31
2023-12-23T07:45:23.094Z,58.06
2023-12-23T07:46:23.088Z,56.81
2023-12-23T07:47:23.092Z,59.64
2023-12-23T07:48:23.241Z,57.34
2023-12-23T07:49:23.062Z,57.21
2023-12-23T07:50:23.095Z,56.96
2023-12-23T07:51:23.034Z,58.03
2023-12-23T07:52:23.063Z,55.35
2023-12-23T07:53:23.144Z,56.78
2023-12-23T07:54:23.103Z,56.86
2023-12-23T07:55:23.007Z,59.42
2023-12-23T07:56:23.042Z,56.41
2023-12-23T07:57:22.997Z,55.69
2023-12-23T07:58:22.978Z,55.94
2023-12-23T07:59:22.980Z,57.17
2023-12-23T08:00:22.967Z,56.69
2023-12-23T08:01:23.040Z,56.14
2023-12-23T08:02:23.017Z,56.67
2023-12-23T08:03:23.026Z,56.52
2023-12-23T08:04:22.930Z,54.21
2023-12-23T08:05:22.997Z,57.22
2023-12-23T08:06:22.960Z,55.38
2023-12-23T08:07:22.901Z,55.39
2023-12-23T08:08:23.025Z,55.34
2023-12-23T08:09:22.885Z,55.62
2023-12-23T08:10:22.870Z,55.48
2023-12-23T08:11:22.997Z,56.91
2023-12-23T08:12:22.845Z,55.68
2023-12-23T08:13:22.862Z,54.56
2023-12-23T08:14:22.918Z,54.98
2023-12-23T08:15:22.832Z,55.15
2023-12-23T08:16:22.819Z,55.69
2023-12-23T08:17:22.837Z,56.24
2023-12-23T08:18:22.913Z,57.54
2023-12-23T08:19:22.873Z,55.59
2023-12-23T08:20:22.797Z,54.64
2023-12-23T08:21:22.779Z,56.01
2023-12-23T08:22:22.761Z,56.10
2023-12-23T08:23:22.776Z,57.30
2023-12-23T08:24:22.767Z,56.80
2023-12-23T08:25:22.740Z,59.51
2023-12-23T08:26:22.955Z,55.31
2023-12-23T08:27:22.712Z,56.69
2023-12-23T08:28:22.705Z,56.25
2023-12-23T08:29:22.764Z,57.33
2023-12-23T08:30:22.787Z,57.35
2023-12-23T08:31:22.678Z,57.46
2023-12-23T08:32:22.799Z,56.42
2023-12-23T08:33:22.725Z,58.12
2023-12-23T08:34:22.833Z,58.73
2023-12-23T08:35:22.706Z,58.05
2023-12-23T08:36:22.641Z,56.93
2023-12-23T08:37:22.623Z,55.21
2023-12-23T08:38:22.657Z,55.25
2023-12-23T08:39:22.630Z,57.54
2023-12-23T08:40:22.644Z,57.57
2023-12-23T08:41:22.640Z,56.63
2023-12-23T08:42:22.623Z,57.57
2023-12-23T08:43:22.568Z,55.75
2023-12-23T08:44:22.777Z,56.56
2023-12-23T08:45:22.565Z,55.80
2023-12-23T08:46:22.548Z,57.27
2023-12-23T08:47:22.571Z,55.00
2023-12-23T08:48:22.625Z,56.63
2023-12-23T08:49:22.592Z,55.20
2023-12-23T08:50:22.559Z,54.26
2023-12-23T08:51:22.500Z,54.92
2023-12-23T08:52:22.481Z,54.71
2023-12-23T08:53:22.542Z,54.42
2023-12-23T08:54:22.476Z,54.30
2023-12-23T08:55:22.459Z,53.61
2023-12-23T08:56:22.516Z,53.87
2023-12-23T08:57:22.439Z,55.80
2023-12-23T08:58:22.450Z,56.51
2023-12-23T08:59:22.521Z,56.02
2023-12-23T09:00:21.421Z,57.37
2023-12-23T09:01:22.407Z,58.03
2023-12-23T09:02:24.441Z,55.54
2023-12-23T09:03:25.078Z,55.63
2023-12-23T09:04:22.377Z,55.67
2023-12-23T09:05:22.485Z,55.92
2023-12-23T09:06:22.475Z,55.87
2023-12-23T09:07:22.362Z,57.26
2023-12-23T09:08:22.412Z,56.67
2023-12-23T09:09:22.331Z,54.87
2023-12-23T09:10:22.324Z,55.35
2023-12-23T09:11:22.469Z,55.99
2023-12-23T09:12:22.391Z,54.01
2023-12-23T09:13:22.588Z,57.24
2023-12-23T09:14:22.403Z,56.13
2023-12-23T09:15:22.275Z,54.55
2023-12-23T09:16:22.274Z,56.36
2023-12-23T09:17:22.403Z,54.04
2023-12-23T09:18:22.290Z,52.84
2023-12-23T09:19:22.296Z,55.11
2023-12-23T09:20:22.338Z,55.23
2023-12-23T09:21:22.224Z,55.79
2023-12-23T09:22:22.216Z,54.03
2023-12-23T09:23:22.238Z,55.79
2023-12-23T09:24:22.207Z,55.03
2023-12-23T09:25:22.206Z,56.14
2023-12-23T09:26:22.268Z,54.55
2023-12-23T09:27:22.184Z,55.48
2023-12-23T09:28:22.206Z,56.51
2023-12-23T09:29:22.227Z,50.99
2023-12-23T09:30:22.197Z,54.29
2023-12-23T09:31:22.139Z,54.77
2023-12-23T09:32:22.182Z,55.10
2023-12-23T09:33:22.180Z,52.52
2023-12-23T09:34:22.115Z,53.50
2023-12-23T09:35:22.137Z,54.64
2023-12-23T09:36:22.094Z,51.86
2023-12-23T09:37:22.095Z,53.43
2023-12-23T09:38:22.114Z,53.53
2023-12-23T09:39:22.080Z,52.33
2023-12-23T09:40:22.071Z,55.77
2023-12-23T09:41:22.061Z,53.77
2023-12-23T09:42:24.218Z,53.66
2023-12-23T09:43:22.035Z,53.78
2023-12-23T09:44:22.130Z,53.77
2023-12-23T09:45:22.016Z,53.44
2023-12-23T09:46:22.010Z,55.58
2023-12-23T09:47:22.112Z,52.78
2023-12-23T09:48:22.084Z,55.46
2023-12-23T09:49:22.110Z,55.52
2023-12-23T09:50:21.999Z,55.14
2023-12-23T09:51:21.960Z,53.61
2023-12-23T09:52:21.963Z,53.69
2023-12-23T09:53:21.996Z,55.87
2023-12-23T09:54:21.998Z,55.03
2023-12-23T09:55:21.937Z,54.01
2023-12-23T09:56:21.980Z,53.77
2023-12-23T09:57:21.912Z,52.18
2023-12-23T09:58:21.894Z,52.62
2023-12-23T09:59:21.981Z,55.91
2023-12-23T10:00:21.909Z,53.74
2023-12-23T10:01:21.925Z,55.32
2023-12-23T10:02:21.966Z,54.78
2023-12-23T10:03:21.908Z,52.86
2023-12-23T10:04:21.842Z,52.21
2023-12-23T10:05:21.903Z,51.48
2023-12-23T10:06:22.688Z,53.96
2023-12-23T10:07:21.820Z,52.82
2023-12-23T10:08:21.859Z,53.60
2023-12-23T10:09:21.794Z,53.16
2023-12-23T10:10:21.794Z,52.29
2023-12-23T10:11:21.989Z,54.61
2023-12-23T10:12:21.776Z,53.10
2023-12-23T10:13:21.764Z,53.55
2023-12-23T10:14:21.798Z,52.25
2023-12-23T10:15:21.769Z,55.14
2023-12-23T10:16:21.762Z,52.67
2023-12-23T10:17:21.773Z,52.79
2023-12-23T10:18:21.798Z,52.47
2023-12-23T10:19:21.825Z,51.20
2023-12-23T10:20:21.862Z,52.71
2023-12-23T10:21:21.688Z,53.51
2023-12-23T10:22:21.678Z,52.77
2023-12-23T10:23:21.746Z,52.93
2023-12-23T10:24:21.662Z,56.04
2023-12-23T10:25:21.654Z,54.25
2023-12-23T10:26:21.755Z,53.04
2023-12-23T10:27:21.658Z,51.47
2023-12-23T10:28:21.624Z,55.39
2023-12-23T10:29:21.640Z,57.15
2023-12-23T10:30:21.803Z,53.73
2023-12-23T10:31:21.597Z,54.04
2023-12-23T10:32:21.687Z,55.84
2023-12-23T10:33:21.634Z,53.10
2023-12-23T10:34:21.664Z,54.61
2023-12-23T10:35:21.600Z,57.43
2023-12-23T10:36:21.545Z,53.92
2023-12-23T10:37:21.587Z,56.43
2023-12-23T10:38:21.690Z,54.65
2023-12-23T10:39:22.056Z,53.81
2023-12-23T10:40:21.514Z,55.96
2023-12-23T10:41:21.858Z,53.68
2023-12-23T10:42:21.562Z,54.61
2023-12-23T10:43:21.484Z,55.41
2023-12-23T10:44:21.512Z,55.93
2023-12-23T10:45:21.482Z,54.32
2023-12-23T10:46:21.465Z,55.12
2023-12-23T10:47:21.581Z,54.21
2023-12-23T10:48:21.590Z,55.04
2023-12-23T10:49:21.510Z,54.16
2023-12-23T10:50:21.481Z,55.86
2023-12-23T10:51:21.419Z,55.70
2023-12-23T10:52:21.408Z,54.66
2023-12-23T10:53:21.435Z,57.31
2023-12-23T10:54:21.393Z,55.60
2023-12-23T10:55:21.373Z,55.13
2023-12-23T10:56:21.396Z,56.27
2023-12-23T10:57:21.361Z,55.18
2023-12-23T10:58:21.350Z,55.49
2023-12-23T10:59:21.458Z,55.91
2023-12-23T11:00:21.331Z,54.35
2023-12-23T11:01:21.328Z,53.11
2023-12-23T11:02:21.354Z,58.72
2023-12-23T11:03:22.088Z,56.02
2023-12-23T11:04:21.315Z,56.34
2023-12-23T11:05:21.318Z,56.32
2023-12-23T11:06:21.450Z,55.00
2023-12-23T11:07:21.278Z,56.37
2023-12-23T11:08:21.344Z,55.48
2023-12-23T11:09:21.249Z,56.12
2023-12-23T11:10:21.241Z,54.46
2023-12-23T11:11:21.310Z,56.65
2023-12-23T11:12:21.231Z,56.37
2023-12-23T11:13:21.224Z,53.93
2023-12-23T11:14:21.228Z,55.37
2023-12-23T11:15:21.235Z,56.63
2023-12-23T11:16:21.187Z,56.81
2023-12-23T11:17:21.246Z,56.49
2023-12-23T11:18:21.317Z,56.83
2023-12-23T11:19:21.194Z,56.28
2023-12-23T11:20:21.235Z,56.49
2023-12-23T11:21:21.138Z,53.72
2023-12-23T11:22:21.135Z,56.29
2023-12-23T11:23:21.157Z,54.35
2023-12-23T11:24:21.117Z,54.71
2023-12-23T11:25:21.151Z,54.98
2023-12-23T11:26:21.110Z,54.12
2023-12-23T11:27:21.081Z,54.48
2023-12-23T11:28:21.108Z,54.68
2023-12-23T11:29:21.094Z,55.94
2023-12-23T11:30:21.084Z,55.26
2023-12-23T11:31:21.052Z,54.27
2023-12-23T11:32:21.158Z,57.42
2023-12-23T11:33:21.251Z,54.69
2023-12-23T11:34:21.114Z,54.93
2023-12-23T11:35:21.095Z,54.81
2023-12-23T11:36:21.030Z,55.17
2023-12-23T11:37:20.997Z,56.23
2023-12-23T11:38:21.026Z,55.40
2023-12-23T11:39:20.973Z,53.58
2023-12-23T11:40:20.981Z,52.57
2023-12-23T11:41:20.986Z,54.33
2023-12-23T11:42:20.956Z,53.93
2023-12-23T11:43:20.944Z,55.30
2023-12-23T11:44:20.963Z,54.51
2023-12-23T11:45:21.014Z,55.03
2023-12-23T11:46:20.912Z,53.19
2023-12-23T11:47:20.935Z,52.98
2023-12-23T11:48:20.957Z,52.79
2023-12-23T11:49:21.670Z,54.32
2023-12-23T11:50:20.935Z,53.66
2023-12-23T11:51:20.871Z,55.20
2023-12-23T11:52:20.884Z,51.76
2023-12-23T11:53:20.966Z,52.63
2023-12-23T11:54:20.845Z,49.69
2023-12-23T11:55:20.851Z,54.94
2023-12-23T11:56:20.874Z,54.30
2023-12-23T11:57:20.814Z,54.33
2023-12-23T11:58:20.816Z,54.20
2023-12-23T11:59:20.838Z,52.54
2023-12-23T12:00:20.805Z,52.06
2023-12-23T12:01:20.832Z,54.40
2023-12-23T12:02:20.810Z,53.84
2023-12-23T12:03:20.790Z,53.85
2023-12-23T12:04:20.814Z,54.12
2023-12-23T12:05:20.859Z,53.42
2023-12-23T12:06:20.825Z,52.34
2023-12-23T12:07:20.740Z,52.54
2023-12-23T12:08:20.792Z,54.03
2023-12-23T12:09:20.711Z,53.09
2023-12-23T12:10:20.705Z,52.94
2023-12-23T12:11:20.740Z,54.13
2023-12-23T12:12:20.682Z,54.54
2023-12-23T12:13:20.674Z,56.42
2023-12-23T12:14:20.751Z,53.64
2023-12-23T12:15:20.651Z,52.27
2023-12-23T12:16:20.640Z,51.83
2023-12-23T12:17:20.789Z,51.93
2023-12-23T12:18:20.706Z,52.42
2023-12-23T12:19:20.672Z,51.69
2023-12-23T12:20:20.670Z,51.16
2023-12-23T12:21:20.618Z,51.02
2023-12-23T12:22:20.591Z,52.43
2023-12-23T12:23:20.659Z,53.53
2023-12-23T12:24:20.595Z,53.88
2023-12-23T12:25:20.562Z,53.45
2023-12-23T12:26:20.605Z,52.91
2023-12-23T12:27:20.554Z,53.55
2023-12-23T12:28:20.545Z,51.67
2023-12-23T12:29:20.586Z,53.04
2023-12-23T12:30:20.563Z,53.03
2023-12-23T12:31:20.510Z,53.56
2023-12-23T12:32:20.537Z,52.36
2023-12-23T12:33:20.685Z,52.79
2023-12-23T12:34:20.535Z,56.18
2023-12-23T12:35:20.582Z,53.47
2023-12-23T12:36:20.475Z,55.14
2023-12-23T12:37:20.458Z,53.19
2023-12-23T12:38:24.043Z,54.18
2023-12-23T12:39:20.466Z,54.27
2023-12-23T12:40:20.469Z,54.32
2023-12-23T12:41:20.481Z,54.42
2023-12-23T12:42:20.422Z,53.92
2023-12-23T12:43:20.407Z,53.22
2023-12-23T12:44:20.424Z,53.08
2023-12-23T12:45:20.391Z,54.60
2023-12-23T12:46:20.375Z,55.08
2023-12-23T12:47:20.398Z,53.71
2023-12-23T12:48:20.418Z,53.05
2023-12-23T12:49:20.367Z,52.70
2023-12-23T12:50:20.390Z,55.39
2023-12-23T12:51:20.354Z,50.75
2023-12-23T12:52:20.324Z,53.74
2023-12-23T12:53:20.347Z,52.27
2023-12-23T12:54:20.301Z,51.98
2023-12-23T12:55:20.303Z,52.56
2023-12-23T12:56:20.384Z,53.56
2023-12-23T12:57:20.286Z,53.46
2023-12-23T12:58:20.267Z,52.63
2023-12-23T12:59:20.302Z,51.58
2023-12-23T13:00:20.256Z,54.02
2023-12-23T13:01:20.276Z,55.60
2023-12-23T13:02:20.323Z,54.26
2023-12-23T13:03:20.244Z,51.54
2023-12-23T13:04:20.214Z,53.87
2023-12-23T13:05:20.381Z,54.82
2023-12-23T13:06:20.329Z,50.10
2023-12-23T13:07:20.188Z,52.81
2023-12-23T13:08:20.204Z,52.97
2023-12-23T13:09:20.164Z,51.98
2023-12-23T13:10:20.168Z,52.89
2023-12-23T13:11:20.249Z,54.36
2023-12-23T13:12:20.195Z,55.26
2023-12-23T13:13:20.157Z,53.09
2023-12-23T13:14:20.165Z,52.23
2023-12-23T13:15:20.120Z,53.86
2023-12-23T13:16:20.122Z,53.67
2023-12-23T13:17:20.350Z,52.52
2023-12-23T13:18:20.262Z,55.18
2023-12-23T13:19:20.189Z,52.26
2023-12-23T13:20:20.154Z,53.47
2023-12-23T13:21:20.061Z,53.93
2023-12-23T13:22:20.061Z,53.86
2023-12-23T13:23:20.082Z,53.21
2023-12-23T13:24:20.027Z,54.06
2023-12-23T13:25:20.027Z,55.10
2023-12-23T13:26:20.073Z,54.37
2023-12-23T13:27:20.026Z,53.68
2023-12-23T13:28:20.057Z,53.77
2023-12-23T13:29:20.032Z,54.23
2023-12-23T13:30:20.000Z,54.48
2023-12-23T13:31:19.963Z,54.18
2023-12-23T13:32:20.023Z,51.77
2023-12-23T13:33:20.009Z,51.85
2023-12-23T13:34:19.978Z,55.06
2023-12-23T13:35:19.965Z,55.73
2023-12-23T13:36:19.915Z,53.15
2023-12-23T13:37:19.911Z,54.41
2023-12-23T13:38:19.944Z,53.10
2023-12-23T13:39:19.888Z,54.25
2023-12-23T13:40:19.900Z,53.26
2023-12-23T13:41:20.146Z,51.04
2023-12-23T13:42:19.931Z,52.44